Portada
METAR-TAF:

METAR-TAF

Aeroports :

Fort Worth, Texas, Estats Units d'Amèrica

latitud: 32-58-24N, longitud: 097-19-05W, altitud: 220 m

Observació

L'informe es va fer fa 38 minuts, a les 09:53 UTC
Vent calma
Temperatura 4°C
Humitat 87%
Pressió 1020 hPa
Visibilitat: 16.1 km
Núvols disperses a una alçada de 16000 ft

METAR: KAFW 180953Z 00000KT 10SM SCT160 04/02 A3011 RMK AO2 SLP199 T00390022

Hora: 04:31 (10:31 UTC)

Pronòstic

L'informe es va fer fa 1 hora i 22 minuts, a les 09:09 UTC
Pronòstic vàlid del 18 a les 09 UTC al 19 a les 06 UTC
Vent 2 kt amb direcció variable
Visibilitat: 10 km
Escasses núvols a una alçada de 20000 ft
A partir de les 18 a les 1100 UTC
Vent 4 kt del Sud-Est
Visibilitat: 3.2 km
Núvols disperses a una alçada de 25000 ft
boirina
A partir de les 18 a les 1500 UTC
Vent 7 kt del Sud/Sud-Est
Visibilitat: 10 km
Núvols disperses a una alçada de 25000 ft

TAF: KAFW 180909Z 1809/1906 VRB02KT P6SM FEW200 FM181100 14004KT 2SM BR SCT250 FM181500 16007KT P6SM SCT250

Observacions i pronòstics meteorològics de més de 4000 aeroports (METAR i TAF).

Les estacions disponibles són els punts grocs i vermells al mapa.

Posi el ratolí al punt desitjat per veure el nom de l'estació.

Feu clic per veure les observacions i els pronòstics meteorològics.

Per canviar el mapa: feu clic els botons verds amb una creu de color negre per apropar; al botó verd amb un guió per allunyar la imatge; o en les fletxes verdes per a mapes adjacents.


METAR-TAF: